createdAt,value
2024-01-11T00:01:22.537Z,-3.40
2024-01-11T00:06:45.336Z,-3.40
2024-01-11T00:11:50.280Z,-3.40
2024-01-11T00:16:57.105Z,-3.40
2024-01-11T00:22:04.101Z,-3.40
2024-01-11T00:28:06.492Z,-3.40
2024-01-11T00:33:19.953Z,-3.40
2024-01-11T00:39:17.979Z,-3.40
2024-01-11T00:44:40.271Z,-3.40
2024-01-11T00:50:02.294Z,-3.50
2024-01-11T01:10:30.163Z,-3.50
2024-01-11T01:15:43.212Z,-3.40
2024-01-11T01:21:36.809Z,-3.40
2024-01-11T01:26:44.091Z,-3.40
2024-01-11T01:32:07.554Z,-3.50
2024-01-11T01:37:16.295Z,-3.50
2024-01-11T01:43:07.833Z,-3.50
2024-01-11T01:48:41.034Z,-3.60
2024-01-11T02:00:30.923Z,-3.60
2024-01-11T02:06:36.420Z,-3.60
2024-01-11T02:12:53.640Z,-3.70
2024-01-11T02:31:42.288Z,-3.60
2024-01-11T02:44:20.924Z,-3.60
2024-01-11T02:50:04.198Z,-3.60
2024-01-11T03:09:34.917Z,-3.80
2024-01-11T03:14:37.082Z,-3.80
2024-01-11T03:26:19.638Z,-3.90
2024-01-11T03:31:28.634Z,-3.90
2024-01-11T03:37:22.077Z,-3.90
2024-01-11T03:42:58.347Z,-4.00
2024-01-11T03:54:58.236Z,-4.00
2024-01-11T04:12:44.606Z,-4.10
2024-01-11T04:18:32.265Z,-4.10
2024-01-11T04:23:57.059Z,-4.20
2024-01-11T04:29:01.869Z,-4.20
2024-01-11T04:34:05.416Z,-4.30
2024-01-11T04:39:13.036Z,-4.40
2024-01-11T04:44:26.560Z,-4.50
2024-01-11T04:49:32.035Z,-4.50
2024-01-11T04:54:37.467Z,-4.60
2024-01-11T04:59:39.838Z,-4.60
2024-01-11T05:04:49.915Z,-4.70
2024-01-11T05:09:53.335Z,-4.70
2024-01-11T05:14:56.705Z,-4.70
2024-01-11T05:19:59.319Z,-4.70
2024-01-11T05:25:04.008Z,-4.70
2024-01-11T05:30:09.426Z,-4.70
2024-01-11T05:35:29.531Z,-4.70
2024-01-11T05:45:48.383Z,-4.80
2024-01-11T05:51:03.683Z,-4.80
2024-01-11T05:56:14.932Z,-4.90
2024-01-11T06:01:28.014Z,-4.90
2024-01-11T06:07:40.465Z,-4.90
2024-01-11T06:12:54.224Z,-4.80
2024-01-11T06:18:07.851Z,-4.80
2024-01-11T06:23:17.341Z,-4.80
2024-01-11T06:28:25.616Z,-4.80
2024-01-11T06:33:39.599Z,-4.90
2024-01-11T06:38:49.056Z,-4.90
2024-01-11T06:43:51.012Z,-4.90
2024-01-11T06:48:52.959Z,-4.90
2024-01-11T06:53:55.280Z,-4.80
2024-01-11T06:58:57.466Z,-4.80
2024-01-11T07:03:59.313Z,-4.80
2024-01-11T07:09:01.184Z,-4.90
2024-01-11T07:14:05.405Z,-4.90
2024-01-11T07:19:07.448Z,-4.90
2024-01-11T07:24:09.432Z,-4.90
2024-01-11T07:29:11.285Z,-4.90
2024-01-11T07:34:13.249Z,-5.00
2024-01-11T07:39:15.131Z,-5.00
2024-01-11T07:44:17.351Z,-5.00
2024-01-11T07:49:19.438Z,-5.00
2024-01-11T07:54:21.294Z,-5.00
2024-01-11T07:59:23.222Z,-4.90
2024-01-11T08:04:25.145Z,-4.90
2024-01-11T08:09:27.655Z,-5.00
2024-01-11T08:14:29.582Z,-5.00
2024-01-11T08:19:32.070Z,-5.00
2024-01-11T08:24:35.725Z,-5.00
2024-01-11T08:29:37.651Z,-4.90
2024-01-11T08:34:40.396Z,-4.90
2024-01-11T08:39:43.737Z,-4.80
2024-01-11T08:44:46.110Z,-4.90
2024-01-11T08:49:47.997Z,-4.90
2024-01-11T08:54:50.461Z,-4.90
2024-01-11T08:59:52.371Z,-4.90
2024-01-11T09:04:54.307Z,-4.80
2024-01-11T09:09:57.692Z,-4.80
2024-01-11T09:15:00.069Z,-4.80
2024-01-11T09:20:02.063Z,-4.80
2024-01-11T09:25:04.182Z,-4.70
2024-01-11T09:30:06.938Z,-4.60
2024-01-11T09:35:11.963Z,-4.60
2024-01-11T09:40:16.086Z,-4.50
2024-01-11T09:45:18.462Z,-4.40
2024-01-11T09:50:21.314Z,-4.30
2024-01-11T09:55:23.221Z,-4.20
2024-01-11T10:00:25.309Z,-4.10
2024-01-11T10:05:28.397Z,-3.90
2024-01-11T10:10:30.472Z,-3.80
2024-01-11T10:15:32.379Z,-3.80
2024-01-11T10:20:34.641Z,-3.70
2024-01-11T10:25:37.085Z,-3.50
2024-01-11T10:30:40.576Z,-3.40
2024-01-11T10:35:42.518Z,-3.30
2024-01-11T10:40:45.084Z,-3.20
2024-01-11T10:45:55.192Z,-3.00
2024-01-11T10:51:00.917Z,-2.80
2024-01-11T10:56:05.083Z,-2.70
2024-01-11T11:01:07.423Z,-2.50
2024-01-11T11:06:10.344Z,-2.40
2024-01-11T11:11:12.372Z,-2.20
2024-01-11T11:16:16.670Z,-2.10
2024-01-11T11:21:18.593Z,-2.00
2024-01-11T11:26:20.529Z,-1.90
2024-01-11T11:31:39.184Z,-1.80
2024-01-11T11:36:43.214Z,-1.70
2024-01-11T11:41:45.261Z,-1.60
2024-01-11T11:46:48.419Z,-1.50
2024-01-11T11:51:50.494Z,-1.40
2024-01-11T11:56:53.654Z,-1.30
2024-01-11T12:01:55.758Z,-1.30
2024-01-11T12:06:57.786Z,-1.20
2024-01-11T12:12:07.424Z,-1.20
2024-01-11T12:17:17.870Z,-1.00
2024-01-11T12:22:20.315Z,-1.00
2024-01-11T12:27:22.237Z,-0.90
2024-01-11T12:32:24.434Z,-0.80
2024-01-11T12:37:26.442Z,-0.80
2024-01-11T12:42:29.270Z,-0.70
2024-01-11T12:47:31.300Z,-0.60
2024-01-11T12:52:33.271Z,-0.60
2024-01-11T12:57:37.240Z,-0.50
2024-01-11T13:02:39.250Z,-0.50
2024-01-11T13:07:41.377Z,-0.40
2024-01-11T13:12:46.103Z,-0.30
2024-01-11T13:17:50.666Z,-0.30
2024-01-11T13:23:20.539Z,-0.30
2024-01-11T13:28:23.598Z,-0.30
2024-01-11T13:33:25.761Z,-0.30
2024-01-11T13:38:27.730Z,-0.30
2024-01-11T13:43:29.794Z,-0.20
2024-01-11T13:48:33.235Z,-0.20
2024-01-11T13:53:35.282Z,-0.10
2024-01-11T13:58:37.517Z,-0.10
2024-01-11T14:03:39.411Z,0.00
2024-01-11T14:08:42.503Z,0.00
2024-01-11T14:13:44.781Z,0.10
2024-01-11T14:18:46.784Z,0.10
2024-01-11T14:23:48.908Z,0.20
2024-01-11T14:28:52.383Z,0.20
2024-01-11T14:33:54.618Z,0.30
2024-01-11T14:38:56.729Z,0.40
2024-01-11T14:44:01.199Z,0.40
2024-01-11T14:49:03.134Z,0.50
2024-01-11T14:54:05.370Z,0.50
2024-01-11T14:59:07.312Z,0.60
2024-01-11T15:04:09.313Z,0.70
2024-01-11T15:09:13.832Z,0.70
2024-01-11T15:14:15.829Z,0.80
2024-01-11T15:19:17.818Z,0.80
2024-01-11T15:24:20.735Z,0.80
2024-01-11T15:29:23.051Z,0.80
2024-01-11T15:34:25.315Z,0.80
2024-01-11T15:39:29.396Z,0.90
2024-01-11T15:44:35.280Z,0.90
2024-01-11T15:49:38.313Z,0.90
2024-01-11T15:54:40.354Z,0.90
2024-01-11T15:59:43.034Z,0.90
2024-01-11T16:04:46.599Z,1.00
2024-01-11T16:09:51.053Z,0.90
2024-01-11T16:22:14.996Z,1.00
2024-01-11T16:40:31.745Z,1.00
2024-01-11T16:52:14.360Z,1.00
2024-01-11T16:57:21.313Z,0.90
2024-01-11T17:02:55.242Z,0.90
2024-01-11T17:08:30.909Z,0.90
2024-01-11T17:13:57.354Z,0.90
2024-01-11T17:25:04.325Z,0.80
2024-01-11T17:48:32.601Z,0.70
2024-01-11T18:00:14.098Z,0.60
2024-01-11T18:05:27.204Z,0.60
2024-01-11T19:19:27.033Z,0.70
2024-01-11T19:32:22.505Z,0.70
2024-01-11T19:51:14.873Z,0.80
2024-01-11T20:05:22.990Z,0.80
2024-01-11T21:28:46.929Z,1.00
2024-01-11T21:34:10.925Z,1.10
2024-01-11T21:46:20.505Z,1.20
2024-01-11T21:52:39.613Z,1.20
2024-01-11T21:58:00.278Z,1.20
2024-01-11T22:03:35.813Z,1.20
2024-01-11T22:35:58.141Z,1.30
2024-01-11T23:18:53.344Z,1.60
2024-01-11T23:37:27.280Z,1.70
